sensor_id;sensor_type;location;lat;lon;timestamp;P1;durP1;ratioP1;P2;durP2;ratioP2
2320;SDS011;15376;48.540;9.268;2022-09-13T00:01:02;3.60;;;3.10;;
2320;SDS011;15376;48.540;9.268;2022-09-13T00:03:28;2.90;;;2.70;;
2320;SDS011;15376;48.540;9.268;2022-09-13T00:05:54;3.97;;;3.20;;
2320;SDS011;15376;48.540;9.268;2022-09-13T00:08:20;3.90;;;2.83;;
2320;SDS011;15376;48.540;9.268;2022-09-13T00:10:46;2.80;;;2.60;;
2320;SDS011;15376;48.540;9.268;2022-09-13T00:13:11;3.77;;;3.03;;
2320;SDS011;15376;48.540;9.268;2022-09-13T00:15:45;3.00;;;2.60;;
2320;SDS011;15376;48.540;9.268;2022-09-13T00:18:12;3.93;;;3.40;;
2320;SDS011;15376;48.540;9.268;2022-09-13T00:20:38;2.93;;;2.73;;
2320;SDS011;15376;48.540;9.268;2022-09-13T00:23:03;3.77;;;2.97;;
2320;SDS011;15376;48.540;9.268;2022-09-13T00:25:29;2.90;;;2.67;;
2320;SDS011;15376;48.540;9.268;2022-09-13T00:27:54;3.00;;;2.80;;
2320;SDS011;15376;48.540;9.268;2022-09-13T00:30:19;3.37;;;3.07;;
2320;SDS011;15376;48.540;9.268;2022-09-13T00:32:45;3.17;;;2.97;;
2320;SDS011;15376;48.540;9.268;2022-09-13T00:35:10;4.47;;;3.27;;
2320;SDS011;15376;48.540;9.268;2022-09-13T00:37:36;3.90;;;3.27;;
2320;SDS011;15376;48.540;9.268;2022-09-13T00:40:01;6.37;;;4.33;;
2320;SDS011;15376;48.540;9.268;2022-09-13T00:42:28;3.70;;;3.40;;
2320;SDS011;15376;48.540;9.268;2022-09-13T00:44:59;3.23;;;3.03;;
2320;SDS011;15376;48.540;9.268;2022-09-13T00:50:28;3.13;;;2.80;;
2320;SDS011;15376;48.540;9.268;2022-09-13T00:53:13;3.77;;;3.47;;
2320;SDS011;15376;48.540;9.268;2022-09-13T00:56:11;3.67;;;2.90;;
2320;SDS011;15376;48.540;9.268;2022-09-13T00:58:42;3.83;;;3.53;;
2320;SDS011;15376;48.540;9.268;2022-09-13T01:01:13;4.03;;;3.67;;
2320;SDS011;15376;48.540;9.268;2022-09-13T01:03:40;3.00;;;2.80;;
2320;SDS011;15376;48.540;9.268;2022-09-13T01:06:09;4.40;;;3.50;;
2320;SDS011;15376;48.540;9.268;2022-09-13T01:08:37;3.60;;;3.30;;
2320;SDS011;15376;48.540;9.268;2022-09-13T01:11:12;3.83;;;3.13;;
2320;SDS011;15376;48.540;9.268;2022-09-13T01:13:46;3.00;;;2.70;;
2320;SDS011;15376;48.540;9.268;2022-09-13T01:16:12;3.00;;;2.80;;
2320;SDS011;15376;48.540;9.268;2022-09-13T01:18:37;4.77;;;3.30;;
2320;SDS011;15376;48.540;9.268;2022-09-13T01:32:16;3.77;;;3.47;;
2320;SDS011;15376;48.540;9.268;2022-09-13T01:38:05;8.73;;;3.80;;
2320;SDS011;15376;48.540;9.268;2022-09-13T01:40:16;2.80;;;2.50;;
2320;SDS011;15376;48.540;9.268;2022-09-13T01:45:50;3.10;;;2.80;;
2320;SDS011;15376;48.540;9.268;2022-09-13T01:48:33;6.93;;;3.03;;
2320;SDS011;15376;48.540;9.268;2022-09-13T01:51:20;3.90;;;3.17;;
2320;SDS011;15376;48.540;9.268;2022-09-13T01:53:57;3.20;;;3.00;;
2320;SDS011;15376;48.540;9.268;2022-09-13T02:02:06;3.70;;;3.40;;
2320;SDS011;15376;48.540;9.268;2022-09-13T02:04:51;3.83;;;3.60;;
2320;SDS011;15376;48.540;9.268;2022-09-13T02:07:24;3.80;;;3.23;;
2320;SDS011;15376;48.540;9.268;2022-09-13T02:09:59;6.93;;;3.60;;
2320;SDS011;15376;48.540;9.268;2022-09-13T02:12:30;4.67;;;3.50;;
2320;SDS011;15376;48.540;9.268;2022-09-13T02:15:05;3.47;;;3.27;;
2320;SDS011;15376;48.540;9.268;2022-09-13T02:17:38;3.70;;;3.30;;
2320;SDS011;15376;48.540;9.268;2022-09-13T02:20:12;3.17;;;2.87;;
2320;SDS011;15376;48.540;9.268;2022-09-13T02:22:45;3.10;;;2.90;;
2320;SDS011;15376;48.540;9.268;2022-09-13T02:25:16;3.70;;;3.20;;
2320;SDS011;15376;48.540;9.268;2022-09-13T02:27:45;3.90;;;3.50;;
2320;SDS011;15376;48.540;9.268;2022-09-13T02:30:15;4.23;;;3.47;;
2320;SDS011;15376;48.540;9.268;2022-09-13T02:32:43;3.13;;;2.93;;
2320;SDS011;15376;48.540;9.268;2022-09-13T02:35:16;4.60;;;2.93;;
2320;SDS011;15376;48.540;9.268;2022-09-13T02:37:47;3.90;;;3.57;;
2320;SDS011;15376;48.540;9.268;2022-09-13T02:40:20;3.80;;;3.50;;
2320;SDS011;15376;48.540;9.268;2022-09-13T02:42:54;4.10;;;3.17;;
2320;SDS011;15376;48.540;9.268;2022-09-13T02:45:28;3.67;;;3.07;;
2320;SDS011;15376;48.540;9.268;2022-09-13T02:48:05;3.47;;;3.17;;
2320;SDS011;15376;48.540;9.268;2022-09-13T02:58:59;3.17;;;2.97;;
2320;SDS011;15376;48.540;9.268;2022-09-13T03:02:30;4.00;;;3.30;;
2320;SDS011;15376;48.540;9.268;2022-09-13T03:04:39;5.63;;;3.17;;
2320;SDS011;15376;48.540;9.268;2022-09-13T03:07:07;3.87;;;3.53;;
2320;SDS011;15376;48.540;9.268;2022-09-13T03:09:34;3.80;;;3.40;;
2320;SDS011;15376;48.540;9.268;2022-09-13T03:17:44;3.93;;;3.63;;
2320;SDS011;15376;48.540;9.268;2022-09-13T03:20:24;3.70;;;3.50;;
2320;SDS011;15376;48.540;9.268;2022-09-13T03:23:19;3.87;;;3.30;;
2320;SDS011;15376;48.540;9.268;2022-09-13T03:26:15;5.50;;;4.47;;
2320;SDS011;15376;48.540;9.268;2022-09-13T03:28:57;4.10;;;3.70;;
2320;SDS011;15376;48.540;9.268;2022-09-13T03:31:49;4.17;;;3.53;;
2320;SDS011;15376;48.540;9.268;2022-09-13T03:34:19;4.00;;;3.70;;
2320;SDS011;15376;48.540;9.268;2022-09-13T03:36:53;3.67;;;3.47;;
2320;SDS011;15376;48.540;9.268;2022-09-13T03:42:01;3.37;;;3.07;;
2320;SDS011;15376;48.540;9.268;2022-09-13T03:44:35;4.10;;;3.30;;
2320;SDS011;15376;48.540;9.268;2022-09-13T03:47:03;4.50;;;4.10;;
2320;SDS011;15376;48.540;9.268;2022-09-13T03:49:31;4.10;;;3.80;;
2320;SDS011;15376;48.540;9.268;2022-09-13T03:51:57;4.23;;;3.93;;
2320;SDS011;15376;48.540;9.268;2022-09-13T03:54:24;3.83;;;3.53;;
2320;SDS011;15376;48.540;9.268;2022-09-13T03:57:11;3.50;;;3.20;;
2320;SDS011;15376;48.540;9.268;2022-09-13T03:59:37;5.83;;;4.07;;
2320;SDS011;15376;48.540;9.268;2022-09-13T04:02:05;4.37;;;3.47;;
2320;SDS011;15376;48.540;9.268;2022-09-13T04:04:35;4.77;;;4.37;;
2320;SDS011;15376;48.540;9.268;2022-09-13T04:07:01;3.60;;;3.30;;
2320;SDS011;15376;48.540;9.268;2022-09-13T04:09:28;3.27;;;3.07;;
2320;SDS011;15376;48.540;9.268;2022-09-13T04:11:54;3.70;;;3.40;;
2320;SDS011;15376;48.540;9.268;2022-09-13T04:14:20;4.87;;;3.57;;
2320;SDS011;15376;48.540;9.268;2022-09-13T04:16:45;4.20;;;3.80;;
2320;SDS011;15376;48.540;9.268;2022-09-13T04:19:11;4.03;;;3.73;;
2320;SDS011;15376;48.540;9.268;2022-09-13T04:21:36;3.93;;;3.63;;
2320;SDS011;15376;48.540;9.268;2022-09-13T04:24:02;6.37;;;3.70;;
2320;SDS011;15376;48.540;9.268;2022-09-13T04:26:27;5.10;;;4.00;;
2320;SDS011;15376;48.540;9.268;2022-09-13T04:28:53;5.50;;;4.07;;
2320;SDS011;15376;48.540;9.268;2022-09-13T04:31:18;4.43;;;3.90;;
2320;SDS011;15376;48.540;9.268;2022-09-13T04:33:43;4.30;;;3.90;;
2320;SDS011;15376;48.540;9.268;2022-09-13T04:36:09;4.63;;;4.00;;
2320;SDS011;15376;48.540;9.268;2022-09-13T04:38:34;4.10;;;3.70;;
2320;SDS011;15376;48.540;9.268;2022-09-13T04:41:01;3.73;;;3.43;;
2320;SDS011;15376;48.540;9.268;2022-09-13T04:43:27;4.40;;;3.43;;
2320;SDS011;15376;48.540;9.268;2022-09-13T04:45:52;4.73;;;4.33;;
2320;SDS011;15376;48.540;9.268;2022-09-13T04:48:17;4.40;;;4.00;;
2320;SDS011;15376;48.540;9.268;2022-09-13T04:50:43;4.10;;;3.70;;
2320;SDS011;15376;48.540;9.268;2022-09-13T04:53:08;4.70;;;3.60;;
2320;SDS011;15376;48.540;9.268;2022-09-13T04:55:34;4.10;;;3.80;;
2320;SDS011;15376;48.540;9.268;2022-09-13T04:58:00;6.20;;;3.90;;
2320;SDS011;15376;48.540;9.268;2022-09-13T05:00:26;4.50;;;4.10;;
2320;SDS011;15376;48.540;9.268;2022-09-13T05:02:55;5.23;;;4.77;;
2320;SDS011;15376;48.540;9.268;2022-09-13T05:05:20;4.67;;;4.23;;
2320;SDS011;15376;48.540;9.268;2022-09-13T05:07:49;4.30;;;3.90;;
2320;SDS011;15376;48.540;9.268;2022-09-13T05:10:15;4.30;;;3.60;;
2320;SDS011;15376;48.540;9.268;2022-09-13T05:12:40;4.60;;;3.80;;
2320;SDS011;15376;48.540;9.268;2022-09-13T05:15:06;3.80;;;3.50;;
2320;SDS011;15376;48.540;9.268;2022-09-13T05:17:32;3.73;;;3.43;;
2320;SDS011;15376;48.540;9.268;2022-09-13T05:19:57;3.77;;;3.43;;
2320;SDS011;15376;48.540;9.268;2022-09-13T05:22:22;4.97;;;3.30;;
2320;SDS011;15376;48.540;9.268;2022-09-13T05:24:48;3.73;;;3.43;;
2320;SDS011;15376;48.540;9.268;2022-09-13T05:27:13;4.23;;;3.47;;
2320;SDS011;15376;48.540;9.268;2022-09-13T05:29:38;4.23;;;3.83;;
2320;SDS011;15376;48.540;9.268;2022-09-13T05:32:04;7.87;;;4.50;;
2320;SDS011;15376;48.540;9.268;2022-09-13T05:34:29;8.20;;;4.23;;
2320;SDS011;15376;48.540;9.268;2022-09-13T05:36:54;4.53;;;4.13;;
2320;SDS011;15376;48.540;9.268;2022-09-13T05:39:20;5.30;;;4.57;;
2320;SDS011;15376;48.540;9.268;2022-09-13T05:41:46;6.13;;;4.40;;
2320;SDS011;15376;48.540;9.268;2022-09-13T05:44:11;4.40;;;4.00;;
2320;SDS011;15376;48.540;9.268;2022-09-13T05:46:37;5.07;;;4.13;;
2320;SDS011;15376;48.540;9.268;2022-09-13T05:49:02;7.10;;;4.10;;
2320;SDS011;15376;48.540;9.268;2022-09-13T05:51:28;4.40;;;4.00;;
2320;SDS011;15376;48.540;9.268;2022-09-13T05:53:54;4.50;;;3.70;;
2320;SDS011;15376;48.540;9.268;2022-09-13T05:56:21;3.57;;;3.23;;
2320;SDS011;15376;48.540;9.268;2022-09-13T05:58:49;4.33;;;3.97;;
2320;SDS011;15376;48.540;9.268;2022-09-13T06:01:17;4.50;;;4.10;;
2320;SDS011;15376;48.540;9.268;2022-09-13T06:03:47;3.93;;;3.20;;
2320;SDS011;15376;48.540;9.268;2022-09-13T06:06:17;5.00;;;3.83;;
2320;SDS011;15376;48.540;9.268;2022-09-13T06:08:43;4.03;;;3.63;;
2320;SDS011;15376;48.540;9.268;2022-09-13T06:11:09;5.63;;;3.77;;
2320;SDS011;15376;48.540;9.268;2022-09-13T06:13:36;3.90;;;3.60;;
2320;SDS011;15376;48.540;9.268;2022-09-13T06:16:04;4.47;;;4.00;;
2320;SDS011;15376;48.540;9.268;2022-09-13T06:18:34;7.50;;;3.40;;
2320;SDS011;15376;48.540;9.268;2022-09-13T06:21:09;4.50;;;3.77;;
2320;SDS011;15376;48.540;9.268;2022-09-13T06:23:41;5.70;;;4.00;;
2320;SDS011;15376;48.540;9.268;2022-09-13T06:26:10;3.97;;;3.60;;
2320;SDS011;15376;48.540;9.268;2022-09-13T06:28:38;6.33;;;4.23;;
2320;SDS011;15376;48.540;9.268;2022-09-13T06:31:05;3.87;;;3.50;;
2320;SDS011;15376;48.540;9.268;2022-09-13T06:33:32;8.23;;;4.47;;
2320;SDS011;15376;48.540;9.268;2022-09-13T06:36:00;4.73;;;4.27;;
2320;SDS011;15376;48.540;9.268;2022-09-13T06:38:26;7.33;;;4.53;;
2320;SDS011;15376;48.540;9.268;2022-09-13T06:41:25;7.90;;;3.27;;
2320;SDS011;15376;48.540;9.268;2022-09-13T06:43:46;7.80;;;4.00;;
2320;SDS011;15376;48.540;9.268;2022-09-13T06:46:13;3.70;;;3.40;;
2320;SDS011;15376;48.540;9.268;2022-09-13T06:48:41;4.10;;;3.57;;
2320;SDS011;15376;48.540;9.268;2022-09-13T06:51:09;4.50;;;3.00;;
2320;SDS011;15376;48.540;9.268;2022-09-13T06:53:37;5.50;;;3.83;;
2320;SDS011;15376;48.540;9.268;2022-09-13T06:56:07;3.97;;;3.57;;
2320;SDS011;15376;48.540;9.268;2022-09-13T06:58:35;5.03;;;4.63;;
2320;SDS011;15376;48.540;9.268;2022-09-13T07:03:41;11.10;;;3.97;;
2320;SDS011;15376;48.540;9.268;2022-09-13T07:06:29;11.87;;;3.63;;
2320;SDS011;15376;48.540;9.268;2022-09-13T07:08:55;7.00;;;3.73;;
2320;SDS011;15376;48.540;9.268;2022-09-13T07:11:23;3.93;;;3.37;;
2320;SDS011;15376;48.540;9.268;2022-09-13T07:13:51;5.60;;;2.93;;
2320;SDS011;15376;48.540;9.268;2022-09-13T07:16:19;3.60;;;3.20;;
2320;SDS011;15376;48.540;9.268;2022-09-13T07:18:52;4.97;;;3.00;;
2320;SDS011;15376;48.540;9.268;2022-09-13T07:21:19;3.97;;;3.30;;
2320;SDS011;15376;48.540;9.268;2022-09-13T07:23:44;4.50;;;3.17;;
2320;SDS011;15376;48.540;9.268;2022-09-13T07:26:10;3.50;;;3.00;;
2320;SDS011;15376;48.540;9.268;2022-09-13T07:28:42;2.53;;;2.33;;
2320;SDS011;15376;48.540;9.268;2022-09-13T07:31:22;3.10;;;2.80;;
2320;SDS011;15376;48.540;9.268;2022-09-13T07:33:55;4.87;;;2.93;;
2320;SDS011;15376;48.540;9.268;2022-09-13T07:36:23;4.13;;;3.00;;
2320;SDS011;15376;48.540;9.268;2022-09-13T07:38:49;4.53;;;2.57;;
2320;SDS011;15376;48.540;9.268;2022-09-13T07:41:16;3.50;;;2.53;;
2320;SDS011;15376;48.540;9.268;2022-09-13T07:43:43;3.83;;;2.80;;
2320;SDS011;15376;48.540;9.268;2022-09-13T07:46:13;5.40;;;3.10;;
2320;SDS011;15376;48.540;9.268;2022-09-13T07:48:40;6.60;;;2.80;;
2320;SDS011;15376;48.540;9.268;2022-09-13T07:51:11;3.43;;;2.67;;
2320;SDS011;15376;48.540;9.268;2022-09-13T07:53:41;4.90;;;2.73;;
2320;SDS011;15376;48.540;9.268;2022-09-13T07:56:09;3.13;;;2.80;;
2320;SDS011;15376;48.540;9.268;2022-09-13T07:58:37;4.17;;;3.10;;
2320;SDS011;15376;48.540;9.268;2022-09-13T08:01:13;4.60;;;2.70;;
2320;SDS011;15376;48.540;9.268;2022-09-13T08:03:43;2.70;;;2.50;;
2320;SDS011;15376;48.540;9.268;2022-09-13T08:06:14;5.30;;;2.77;;
2320;SDS011;15376;48.540;9.268;2022-09-13T08:08:39;2.87;;;2.57;;
2320;SDS011;15376;48.540;9.268;2022-09-13T08:11:05;7.43;;;3.20;;
2320;SDS011;15376;48.540;9.268;2022-09-13T08:13:31;3.43;;;2.83;;
2320;SDS011;15376;48.540;9.268;2022-09-13T08:16:00;3.30;;;2.37;;
2320;SDS011;15376;48.540;9.268;2022-09-13T08:18:29;4.40;;;2.80;;
2320;SDS011;15376;48.540;9.268;2022-09-13T08:20:55;3.33;;;2.67;;
2320;SDS011;15376;48.540;9.268;2022-09-13T08:23:22;4.80;;;2.63;;
2320;SDS011;15376;48.540;9.268;2022-09-13T08:25:48;5.27;;;2.97;;
2320;SDS011;15376;48.540;9.268;2022-09-13T08:28:14;7.80;;;2.60;;
2320;SDS011;15376;48.540;9.268;2022-09-13T08:30:41;5.13;;;3.20;;
2320;SDS011;15376;48.540;9.268;2022-09-13T08:33:08;5.60;;;2.40;;
2320;SDS011;15376;48.540;9.268;2022-09-13T08:35:35;2.30;;;2.10;;
2320;SDS011;15376;48.540;9.268;2022-09-13T08:38:02;2.83;;;2.60;;
2320;SDS011;15376;48.540;9.268;2022-09-13T08:40:29;2.97;;;2.50;;
2320;SDS011;15376;48.540;9.268;2022-09-13T08:43:04;3.17;;;2.40;;
2320;SDS011;15376;48.540;9.268;2022-09-13T08:45:37;2.53;;;2.30;;
2320;SDS011;15376;48.540;9.268;2022-09-13T08:48:04;3.23;;;2.17;;
2320;SDS011;15376;48.540;9.268;2022-09-13T08:50:37;3.90;;;2.73;;
2320;SDS011;15376;48.540;9.268;2022-09-13T09:06:44;3.07;;;2.77;;
2320;SDS011;15376;48.540;9.268;2022-09-13T09:09:12;4.33;;;2.50;;
2320;SDS011;15376;48.540;9.268;2022-09-13T09:11:53;3.83;;;3.07;;
2320;SDS011;15376;48.540;9.268;2022-09-13T09:14:31;2.67;;;2.33;;
2320;SDS011;15376;48.540;9.268;2022-09-13T09:17:03;2.30;;;2.20;;
2320;SDS011;15376;48.540;9.268;2022-09-13T09:22:15;3.63;;;2.33;;
2320;SDS011;15376;48.540;9.268;2022-09-13T09:24:43;2.47;;;2.20;;
2320;SDS011;15376;48.540;9.268;2022-09-13T09:27:13;3.03;;;2.43;;
2320;SDS011;15376;48.540;9.268;2022-09-13T09:29:39;5.77;;;2.60;;
2320;SDS011;15376;48.540;9.268;2022-09-13T09:35:41;4.03;;;2.50;;
2320;SDS011;15376;48.540;9.268;2022-09-13T09:40:38;2.87;;;2.00;;
2320;SDS011;15376;48.540;9.268;2022-09-13T09:43:11;2.60;;;1.80;;
2320;SDS011;15376;48.540;9.268;2022-09-13T09:45:41;4.07;;;2.33;;
2320;SDS011;15376;48.540;9.268;2022-09-13T09:48:11;2.93;;;1.87;;
2320;SDS011;15376;48.540;9.268;2022-09-13T09:50:46;2.47;;;2.23;;
2320;SDS011;15376;48.540;9.268;2022-09-13T09:53:23;2.53;;;1.93;;
2320;SDS011;15376;48.540;9.268;2022-09-13T09:55:59;3.60;;;2.00;;
2320;SDS011;15376;48.540;9.268;2022-09-13T09:58:39;1.60;;;1.50;;
2320;SDS011;15376;48.540;9.268;2022-09-13T10:06:31;2.90;;;1.90;;
2320;SDS011;15376;48.540;9.268;2022-09-13T10:11:23;3.20;;;2.73;;
2320;SDS011;15376;48.540;9.268;2022-09-13T10:14:09;2.40;;;2.00;;
2320;SDS011;15376;48.540;9.268;2022-09-13T10:17:02;2.93;;;2.27;;
2320;SDS011;15376;48.540;9.268;2022-09-13T10:19:31;2.07;;;1.90;;
2320;SDS011;15376;48.540;9.268;2022-09-13T10:22:00;2.10;;;1.90;;
2320;SDS011;15376;48.540;9.268;2022-09-13T10:24:29;2.43;;;1.77;;
2320;SDS011;15376;48.540;9.268;2022-09-13T10:26:55;3.50;;;1.93;;
2320;SDS011;15376;48.540;9.268;2022-09-13T10:29:23;1.50;;;1.40;;
2320;SDS011;15376;48.540;9.268;2022-09-13T10:31:51;2.03;;;1.83;;
2320;SDS011;15376;48.540;9.268;2022-09-13T10:34:36;1.70;;;1.60;;
2320;SDS011;15376;48.540;9.268;2022-09-13T10:37:02;1.80;;;1.70;;
2320;SDS011;15376;48.540;9.268;2022-09-13T10:39:31;2.07;;;1.97;;
2320;SDS011;15376;48.540;9.268;2022-09-13T10:44:42;1.83;;;1.50;;
2320;SDS011;15376;48.540;9.268;2022-09-13T10:47:17;2.27;;;1.80;;
2320;SDS011;15376;48.540;9.268;2022-09-13T10:49:47;1.60;;;1.50;;
2320;SDS011;15376;48.540;9.268;2022-09-13T10:52:42;1.53;;;1.43;;
2320;SDS011;15376;48.540;9.268;2022-09-13T10:57:42;2.57;;;1.60;;
2320;SDS011;15376;48.540;9.268;2022-09-13T11:00:10;3.70;;;1.60;;
2320;SDS011;15376;48.540;9.268;2022-09-13T11:02:54;1.67;;;1.50;;
2320;SDS011;15376;48.540;9.268;2022-09-13T11:13:32;1.50;;;1.40;;
2320;SDS011;15376;48.540;9.268;2022-09-13T11:16:30;2.10;;;1.90;;
2320;SDS011;15376;48.540;9.268;2022-09-13T11:19:03;1.70;;;1.60;;
2320;SDS011;15376;48.540;9.268;2022-09-13T11:29:41;1.80;;;1.70;;
2320;SDS011;15376;48.540;9.268;2022-09-13T11:43:02;3.80;;;1.80;;
2320;SDS011;15376;48.540;9.268;2022-09-13T11:49:26;2.83;;;1.73;;
2320;SDS011;15376;48.540;9.268;2022-09-13T11:56:29;2.00;;;1.80;;
2320;SDS011;15376;48.540;9.268;2022-09-13T11:59:07;1.87;;;1.57;;
2320;SDS011;15376;48.540;9.268;2022-09-13T12:01:43;1.80;;;1.60;;
2320;SDS011;15376;48.540;9.268;2022-09-13T12:04:14;1.97;;;1.60;;
2320;SDS011;15376;48.540;9.268;2022-09-13T12:06:52;2.10;;;1.90;;
2320;SDS011;15376;48.540;9.268;2022-09-13T12:09:26;2.23;;;2.00;;
2320;SDS011;15376;48.540;9.268;2022-09-13T12:12:09;1.90;;;1.47;;
2320;SDS011;15376;48.540;9.268;2022-09-13T12:14:45;3.27;;;2.00;;
2320;SDS011;15376;48.540;9.268;2022-09-13T12:17:26;2.90;;;1.77;;
2320;SDS011;15376;48.540;9.268;2022-09-13T12:19:58;3.53;;;1.70;;
2320;SDS011;15376;48.540;9.268;2022-09-13T12:22:26;1.63;;;1.53;;
2320;SDS011;15376;48.540;9.268;2022-09-13T12:24:57;3.33;;;1.50;;
2320;SDS011;15376;48.540;9.268;2022-09-13T12:27:30;2.30;;;1.83;;
2320;SDS011;15376;48.540;9.268;2022-09-13T12:32:39;1.43;;;1.33;;
2320;SDS011;15376;48.540;9.268;2022-09-13T12:35:06;1.40;;;1.17;;
2320;SDS011;15376;48.540;9.268;2022-09-13T12:51:54;2.50;;;1.63;;
2320;SDS011;15376;48.540;9.268;2022-09-13T12:54:48;1.53;;;1.00;;
2320;SDS011;15376;48.540;9.268;2022-09-13T13:00:32;1.50;;;1.27;;
2320;SDS011;15376;48.540;9.268;2022-09-13T13:05:40;1.50;;;1.40;;
2320;SDS011;15376;48.540;9.268;2022-09-13T13:13:38;3.40;;;1.83;;
2320;SDS011;15376;48.540;9.268;2022-09-13T13:18:52;1.50;;;1.17;;
2320;SDS011;15376;48.540;9.268;2022-09-13T13:29:15;1.70;;;1.60;;
2320;SDS011;15376;48.540;9.268;2022-09-13T13:37:20;1.60;;;1.20;;
2320;SDS011;15376;48.540;9.268;2022-09-13T13:46:22;6.70;;;6.07;;
2320;SDS011;15376;48.540;9.268;2022-09-13T13:48:52;1.70;;;1.60;;
2320;SDS011;15376;48.540;9.268;2022-09-13T13:51:22;1.50;;;1.40;;
2320;SDS011;15376;48.540;9.268;2022-09-13T13:53:56;1.70;;;1.60;;
2320;SDS011;15376;48.540;9.268;2022-09-13T13:56:32;4.07;;;1.57;;
2320;SDS011;15376;48.540;9.268;2022-09-13T14:01:56;2.50;;;2.30;;
2320;SDS011;15376;48.540;9.268;2022-09-13T14:10:32;2.13;;;1.93;;
2320;SDS011;15376;48.540;9.268;2022-09-13T14:18:27;2.40;;;1.93;;
2320;SDS011;15376;48.540;9.268;2022-09-13T14:21:18;1.67;;;1.57;;
2320;SDS011;15376;48.540;9.268;2022-09-13T14:23:49;1.93;;;1.50;;
2320;SDS011;15376;48.540;9.268;2022-09-13T14:26:14;2.13;;;1.93;;
2320;SDS011;15376;48.540;9.268;2022-09-13T14:28:40;2.40;;;1.73;;
2320;SDS011;15376;48.540;9.268;2022-09-13T14:31:05;2.47;;;1.70;;
2320;SDS011;15376;48.540;9.268;2022-09-13T14:33:32;1.50;;;1.40;;
2320;SDS011;15376;48.540;9.268;2022-09-13T14:38:30;3.50;;;1.67;;
2320;SDS011;15376;48.540;9.268;2022-09-13T14:41:13;1.77;;;1.50;;
2320;SDS011;15376;48.540;9.268;2022-09-13T14:43:41;2.33;;;1.93;;
2320;SDS011;15376;48.540;9.268;2022-09-13T14:46:18;1.80;;;1.70;;
2320;SDS011;15376;48.540;9.268;2022-09-13T14:48:53;1.97;;;1.60;;
2320;SDS011;15376;48.540;9.268;2022-09-13T14:51:42;3.90;;;2.40;;
2320;SDS011;15376;48.540;9.268;2022-09-13T14:56:52;2.93;;;2.23;;
2320;SDS011;15376;48.540;9.268;2022-09-13T14:59:30;2.43;;;1.87;;
2320;SDS011;15376;48.540;9.268;2022-09-13T15:02:35;4.43;;;2.57;;
2320;SDS011;15376;48.540;9.268;2022-09-13T15:04:54;2.10;;;1.90;;
2320;SDS011;15376;48.540;9.268;2022-09-13T15:07:22;2.00;;;1.80;;
2320;SDS011;15376;48.540;9.268;2022-09-13T15:10:42;2.20;;;1.70;;
2320;SDS011;15376;48.540;9.268;2022-09-13T15:12:55;4.07;;;3.00;;
2320;SDS011;15376;48.540;9.268;2022-09-13T15:15:39;4.67;;;2.60;;
2320;SDS011;15376;48.540;9.268;2022-09-13T15:20:52;1.73;;;1.40;;
2320;SDS011;15376;48.540;9.268;2022-09-13T15:23:25;2.30;;;2.10;;
2320;SDS011;15376;48.540;9.268;2022-09-13T15:25:56;3.00;;;2.30;;
2320;SDS011;15376;48.540;9.268;2022-09-13T15:28:30;2.07;;;1.87;;
2320;SDS011;15376;48.540;9.268;2022-09-13T15:30:58;6.60;;;2.13;;
2320;SDS011;15376;48.540;9.268;2022-09-13T15:35:51;3.30;;;2.30;;
2320;SDS011;15376;48.540;9.268;2022-09-13T15:38:36;2.70;;;2.17;;
2320;SDS011;15376;48.540;9.268;2022-09-13T15:41:11;4.40;;;2.50;;
2320;SDS011;15376;48.540;9.268;2022-09-13T15:43:41;1.93;;;1.73;;
2320;SDS011;15376;48.540;9.268;2022-09-13T15:46:08;2.90;;;2.63;;
2320;SDS011;15376;48.540;9.268;2022-09-13T15:48:38;5.40;;;2.10;;
2320;SDS011;15376;48.540;9.268;2022-09-13T15:53:34;3.33;;;2.10;;
2320;SDS011;15376;48.540;9.268;2022-09-13T15:56:01;3.63;;;2.00;;
2320;SDS011;15376;48.540;9.268;2022-09-13T15:58:28;7.53;;;2.63;;
2320;SDS011;15376;48.540;9.268;2022-09-13T16:00:54;2.13;;;1.97;;
2320;SDS011;15376;48.540;9.268;2022-09-13T16:03:19;3.97;;;2.00;;
2320;SDS011;15376;48.540;9.268;2022-09-13T16:05:44;2.73;;;2.03;;
2320;SDS011;15376;48.540;9.268;2022-09-13T16:08:10;3.53;;;2.60;;
2320;SDS011;15376;48.540;9.268;2022-09-13T16:10:35;5.83;;;2.43;;
2320;SDS011;15376;48.540;9.268;2022-09-13T16:13:01;5.00;;;2.07;;
2320;SDS011;15376;48.540;9.268;2022-09-13T16:15:26;2.93;;;2.23;;
2320;SDS011;15376;48.540;9.268;2022-09-13T16:17:52;6.00;;;2.30;;
2320;SDS011;15376;48.540;9.268;2022-09-13T16:20:17;3.50;;;2.20;;
2320;SDS011;15376;48.540;9.268;2022-09-13T16:22:43;4.67;;;2.27;;
2320;SDS011;15376;48.540;9.268;2022-09-13T16:25:10;2.37;;;2.17;;
2320;SDS011;15376;48.540;9.268;2022-09-13T16:27:37;3.30;;;2.20;;
2320;SDS011;15376;48.540;9.268;2022-09-13T16:30:03;2.93;;;2.30;;
2320;SDS011;15376;48.540;9.268;2022-09-13T16:32:29;2.50;;;2.30;;
2320;SDS011;15376;48.540;9.268;2022-09-13T16:34:55;4.53;;;1.97;;
2320;SDS011;15376;48.540;9.268;2022-09-13T16:37:21;7.37;;;2.40;;
2320;SDS011;15376;48.540;9.268;2022-09-13T16:39:47;4.60;;;2.20;;
2320;SDS011;15376;48.540;9.268;2022-09-13T16:42:13;3.10;;;2.20;;
2320;SDS011;15376;48.540;9.268;2022-09-13T16:44:40;6.47;;;2.70;;
2320;SDS011;15376;48.540;9.268;2022-09-13T16:47:05;3.37;;;2.60;;
2320;SDS011;15376;48.540;9.268;2022-09-13T16:49:31;4.70;;;2.73;;
2320;SDS011;15376;48.540;9.268;2022-09-13T16:51:56;2.10;;;1.93;;
2320;SDS011;15376;48.540;9.268;2022-09-13T16:54:25;2.87;;;2.33;;
2320;SDS011;15376;48.540;9.268;2022-09-13T16:56:55;3.00;;;2.40;;
2320;SDS011;15376;48.540;9.268;2022-09-13T16:59:21;5.00;;;2.37;;
2320;SDS011;15376;48.540;9.268;2022-09-13T17:01:47;3.07;;;2.30;;
2320;SDS011;15376;48.540;9.268;2022-09-13T17:04:12;3.27;;;2.00;;
2320;SDS011;15376;48.540;9.268;2022-09-13T17:06:38;4.00;;;3.60;;
2320;SDS011;15376;48.540;9.268;2022-09-13T17:09:04;3.43;;;2.17;;
2320;SDS011;15376;48.540;9.268;2022-09-13T17:11:32;4.00;;;2.33;;
2320;SDS011;15376;48.540;9.268;2022-09-13T17:14:00;4.90;;;2.70;;
2320;SDS011;15376;48.540;9.268;2022-09-13T17:18:58;5.53;;;3.73;;
2320;SDS011;15376;48.540;9.268;2022-09-13T17:21:25;4.60;;;3.03;;
2320;SDS011;15376;48.540;9.268;2022-09-13T17:23:52;5.73;;;2.53;;
2320;SDS011;15376;48.540;9.268;2022-09-13T17:26:17;3.97;;;2.57;;
2320;SDS011;15376;48.540;9.268;2022-09-13T17:28:43;4.37;;;2.80;;
2320;SDS011;15376;48.540;9.268;2022-09-13T17:31:08;5.67;;;2.63;;
2320;SDS011;15376;48.540;9.268;2022-09-13T17:33:34;4.40;;;3.13;;
2320;SDS011;15376;48.540;9.268;2022-09-13T17:36:00;3.83;;;2.77;;
2320;SDS011;15376;48.540;9.268;2022-09-13T17:38:27;3.00;;;2.80;;
2320;SDS011;15376;48.540;9.268;2022-09-13T17:43:44;7.07;;;3.20;;
2320;SDS011;15376;48.540;9.268;2022-09-13T17:46:12;7.00;;;3.33;;
2320;SDS011;15376;48.540;9.268;2022-09-13T17:48:38;5.07;;;3.10;;
2320;SDS011;15376;48.540;9.268;2022-09-13T17:51:13;3.00;;;2.70;;
2320;SDS011;15376;48.540;9.268;2022-09-13T17:53:42;3.63;;;3.20;;
2320;SDS011;15376;48.540;9.268;2022-09-13T17:56:09;5.73;;;2.80;;
2320;SDS011;15376;48.540;9.268;2022-09-13T17:58:35;3.00;;;2.70;;
2320;SDS011;15376;48.540;9.268;2022-09-13T18:01:07;6.97;;;3.17;;
2320;SDS011;15376;48.540;9.268;2022-09-13T18:03:34;3.43;;;3.10;;
2320;SDS011;15376;48.540;9.268;2022-09-13T18:06:00;4.90;;;3.80;;
2320;SDS011;15376;48.540;9.268;2022-09-13T18:08:27;7.83;;;3.47;;
2320;SDS011;15376;48.540;9.268;2022-09-13T18:10:53;3.60;;;3.20;;
2320;SDS011;15376;48.540;9.268;2022-09-13T18:13:19;7.40;;;3.87;;
2320;SDS011;15376;48.540;9.268;2022-09-13T18:15:56;6.10;;;4.10;;
2320;SDS011;15376;48.540;9.268;2022-09-13T18:18:25;6.30;;;2.80;;
2320;SDS011;15376;48.540;9.268;2022-09-13T18:20:51;3.97;;;3.20;;
2320;SDS011;15376;48.540;9.268;2022-09-13T18:23:16;9.70;;;4.27;;
2320;SDS011;15376;48.540;9.268;2022-09-13T18:25:42;10.60;;;4.20;;
2320;SDS011;15376;48.540;9.268;2022-09-13T18:28:07;5.53;;;2.97;;
2320;SDS011;15376;48.540;9.268;2022-09-13T18:30:33;4.30;;;3.30;;
2320;SDS011;15376;48.540;9.268;2022-09-13T18:32:58;6.87;;;3.83;;
2320;SDS011;15376;48.540;9.268;2022-09-13T18:35:23;3.23;;;3.00;;
2320;SDS011;15376;48.540;9.268;2022-09-13T18:37:49;3.73;;;3.27;;